Time;durP1;ratioP1;P1;durP2;ratioP2;P2;SDS_P1;SDS_P2;PMS_P1;PMS_P2;Temp;Humidity;BMP_temperature;BMP_pressure;BME280_temperature;BME280_humidity;BME280_pressure;Samples;Min_cycle;Max_cycle;Signal;HPM_P1;HPM_P2
2022/11/22 00:01:32;;;;;;;20.35;14.98;;;;;;;0.60;81.93;97496.16;5105556;28;20043;-71
2022/11/22 00:03:59;;;;;;;17.60;13.50;;;;;;;2.45;81.96;97832.34;5106961;28;20050;-71
2022/11/22 00:06:26;;;;;;;21.70;13.20;;;;;;;2.41;82.34;97810.72;5105735;28;20116;-71
2022/11/22 00:08:54;;;;;;;18.25;12.85;;;;;;;2.34;82.60;97811.94;5106960;28;20036;-73
2022/11/22 00:11:20;;;;;;;18.85;13.15;;;;;;;2.31;82.15;97811.22;5105470;28;20039;-71
2022/11/22 00:13:47;;;;;;;19.77;14.48;;;;;;;2.26;82.51;97828.91;5105370;28;20050;-71
2022/11/22 00:16:14;;;;;;;16.35;12.27;;;;;;;1.99;82.69;97773.50;5106791;28;20101;-71
2022/11/22 00:18:41;;;;;;;16.63;11.55;;;;;;;2.15;82.68;97811.09;5106524;28;20044;-72
2022/11/22 00:21:08;;;;;;;15.82;12.68;;;;;;;2.11;82.93;97807.78;5106105;28;20044;-72
2022/11/22 00:23:35;;;;;;;19.48;13.07;;;;;;;1.85;83.16;97768.91;5106350;28;20047;-72
2022/11/22 00:26:03;;;;;;;19.40;13.40;;;;;;;2.02;83.10;97796.88;5106669;28;20044;-73
2022/11/22 00:28:30;;;;;;;18.48;12.95;;;;;;;2.01;83.22;97798.66;5106083;28;20047;-73
2022/11/22 00:30:56;;;;;;;20.15;12.88;;;;;;;2.01;83.77;97787.34;5106270;28;20044;-72
2022/11/22 00:33:24;;;;;;;17.05;12.63;;;;;;;2.00;83.58;97793.50;5105970;28;20089;-73
2022/11/22 00:35:50;;;;;;;17.00;12.75;;;;;;;2.01;83.53;97777.75;5106249;28;20056;-73
2022/11/22 00:38:17;;;;;;;17.58;12.63;;;;;;;0.59;83.23;97540.53;5106373;28;20044;-73
2022/11/22 00:40:44;;;;;;;17.67;12.18;;;;;;;2.03;83.57;97786.38;5106191;28;20180;-72
2022/11/22 00:43:12;;;;;;;17.85;12.95;;;;;;;2.01;83.40;97782.97;5105018;28;20161;-71
2022/11/22 00:45:40;;;;;;;18.60;11.80;;;;;;;0.93;83.21;97618.97;5105692;28;20044;-71
2022/11/22 00:48:07;;;;;;;18.02;12.85;;;;;;;1.75;83.06;97757.19;5105969;28;20055;-71
2022/11/22 00:50:34;;;;;;;23.27;13.82;;;;;;;1.95;83.24;97778.03;5105637;28;20051;-72
2022/11/22 00:53:00;;;;;;;17.63;12.90;;;;;;;1.92;83.39;97785.16;5105508;28;20357;-71
2022/11/22 00:55:27;;;;;;;20.52;12.93;;;;;;;1.92;83.33;97785.16;5104352;28;20062;-72
2022/11/22 00:57:54;;;;;;;17.40;12.27;;;;;;;1.84;83.36;97780.28;5105884;28;20040;-71
2022/11/22 01:00:22;;;;;;;21.15;12.32;;;;;;;1.77;83.50;97789.31;5104633;28;20039;-72
2022/11/22 01:02:49;;;;;;;18.75;12.10;;;;;;;1.72;83.54;97779.06;5105523;28;20040;-72
2022/11/22 01:05:17;;;;;;;16.50;11.77;;;;;;;1.72;83.48;97783.44;5104651;28;20205;-71
2022/11/22 01:07:43;;;;;;;16.75;11.63;;;;;;;1.68;83.63;97785.34;5104658;28;20036;-71
2022/11/22 01:10:10;;;;;;;19.05;13.43;;;;;;;1.66;83.60;97786.31;5104594;28;20043;-71
2022/11/22 01:12:37;;;;;;;15.32;10.55;;;;;;;1.66;83.60;97783.72;5105977;28;20218;-71
2022/11/22 01:15:05;;;;;;;19.85;12.70;;;;;;;0.62;83.79;97602.97;5104559;28;20039;-72
2022/11/22 01:17:33;;;;;;;16.52;12.55;;;;;;;1.46;83.73;97738.41;5105658;28;20093;-72
2022/11/22 01:20:00;;;;;;;18.83;11.50;;;;;;;1.61;83.98;97763.03;5105314;28;20300;-72
2022/11/22 01:22:27;;;;;;;17.42;12.27;;;;;;;1.58;83.78;97763.97;5105611;28;20043;-71
2022/11/22 01:24:54;;;;;;;17.52;10.85;;;;;;;1.56;83.98;97765.81;5105317;28;20044;-72
2022/11/22 01:27:21;;;;;;;18.08;12.48;;;;;;;1.56;84.02;97754.50;5104520;28;20304;-73
2022/11/22 01:29:47;;;;;;;18.63;11.90;;;;;;;1.56;84.02;97759.75;5105360;28;20032;-73
2022/11/22 01:32:14;;;;;;;18.88;11.95;;;;;;;1.52;84.02;97758.19;5104477;28;20353;-72
2022/11/22 01:34:42;;;;;;;14.43;10.48;;;;;;;0.81;84.20;97629.09;5105356;28;20052;-72
2022/11/22 01:37:09;;;;;;;18.20;11.05;;;;;;;1.46;84.36;97733.19;5105347;28;20040;-73
2022/11/22 01:39:36;;;;;;;21.45;11.93;;;;;;;1.51;84.06;97738.22;5104655;28;20078;-73
2022/11/22 01:42:03;;;;;;;15.05;10.55;;;;;;;1.52;84.23;97739.91;5104310;28;20062;-70
2022/11/22 01:44:32;;;;;;;19.98;12.82;;;;;;;1.18;84.16;97664.84;5105444;28;20039;-71
2022/11/22 01:47:03;;;;;;;17.38;10.85;;;;;;;1.51;84.49;97735.59;5104783;28;20090;-70
2022/11/22 01:49:35;;;;;;;16.45;10.05;;;;;;;0.71;84.35;97601.72;5104204;28;20040;-71
2022/11/22 01:52:07;;;;;;;16.35;11.38;;;;;;;1.52;84.54;97726.84;5105374;28;20055;-70
2022/11/22 01:54:37;;;;;;;15.45;9.38;;;;;;;1.51;85.05;97733.84;5104716;28;20051;-71
2022/11/22 01:57:09;;;;;;;18.02;10.82;;;;;;;1.39;84.88;97696.97;5104871;28;20078;-71
2022/11/22 01:59:41;;;;;;;15.13;9.95;;;;;;;1.54;84.90;97725.03;5104332;28;20308;-71
2022/11/22 02:02:08;;;;;;;13.90;9.70;;;;;;;1.55;84.93;97730.16;5105234;28;20086;-71
2022/11/22 02:04:37;;;;;;;16.08;10.43;;;;;;;1.59;84.89;97733.50;5108103;28;20101;-71
2022/11/22 02:07:11;;;;;;;14.25;10.68;;;;;;;1.62;84.95;97727.31;5107844;28;20102;-72
2022/11/22 02:09:39;;;;;;;16.40;11.30;;;;;;;1.64;84.92;97720.25;5108941;28;20040;-71
2022/11/22 02:12:09;;;;;;;14.40;10.55;;;;;;;1.64;84.84;97715.03;5107769;28;20292;-72
2022/11/22 02:14:38;;;;;;;15.25;10.10;;;;;;;1.68;84.73;97711.38;5107751;28;20036;-72
2022/11/22 02:17:05;;;;;;;15.10;10.43;;;;;;;1.68;85.08;97714.81;5108473;28;20040;-72
2022/11/22 02:19:40;;;;;;;15.98;10.98;;;;;;;1.52;85.39;97698.13;5108637;28;20311;-72
2022/11/22 02:22:18;;;;;;;20.77;11.15;;;;;;;1.26;85.54;97642.72;5107497;28;20036;-72
2022/11/22 02:24:50;;;;;;;15.48;9.60;;;;;;;1.48;85.36;97662.63;5108661;28;20101;-71
2022/11/22 02:27:18;;;;;;;16.80;10.15;;;;;;;1.75;85.28;97694.50;5108857;28;20219;-71
2022/11/22 02:29:45;;;;;;;16.88;10.30;;;;;;;1.78;85.24;97703.03;5107421;28;20043;-72
2022/11/22 02:32:12;;;;;;;17.08;10.85;;;;;;;1.79;85.25;97693.44;5108469;28;20085;-72
2022/11/22 02:34:43;;;;;;;18.80;10.68;;;;;;;1.80;85.89;97693.38;5108150;28;20077;-72
2022/11/22 02:37:12;;;;;;;16.98;11.23;;;;;;;1.63;85.33;97658.50;5108608;28;20058;-72
2022/11/22 02:39:42;;;;;;;21.15;11.77;;;;;;;1.82;85.58;97673.25;5107963;28;20040;-72
2022/11/22 02:42:09;;;;;;;18.25;11.60;;;;;;;1.89;85.45;97682.50;5108276;28;20044;-72
2022/11/22 02:44:38;;;;;;;15.02;10.35;;;;;;;1.91;85.52;97682.44;5107244;28;20097;-72
2022/11/22 02:47:05;;;;;;;19.60;12.48;;;;;;;1.93;85.79;97677.97;5107967;28;20040;-72
2022/11/22 02:49:32;;;;;;;19.65;11.25;;;;;;;1.95;85.70;97673.53;5106995;28;20204;-71
2022/11/22 02:51:59;;;;;;;20.73;13.27;;;;;;;1.98;85.42;97696.03;5107716;28;20050;-71
2022/11/22 02:54:26;;;;;;;18.77;12.02;;;;;;;1.83;85.59;97640.13;5107071;28;20082;-71
2022/11/22 02:56:52;;;;;;;17.65;11.32;;;;;;;2.03;85.95;97662.72;5106624;28;20235;-71
2022/11/22 02:59:19;;;;;;;17.83;11.70;;;;;;;2.04;85.88;97656.56;5107498;28;20044;-71
2022/11/22 03:01:47;;;;;;;19.42;12.25;;;;;;;2.06;85.91;97662.56;5106661;28;20086;-71
2022/11/22 03:04:23;;;;;;;20.27;12.43;;;;;;;2.08;85.83;97660.72;5108106;28;20043;-71
2022/11/22 03:06:50;;;;;;;17.17;11.50;;;;;;;2.11;85.87;97660.56;5106593;28;20254;-72
2022/11/22 03:09:17;;;;;;;21.33;12.57;;;;;;;0.76;86.22;97427.66;5107679;28;20040;-72
2022/11/22 03:11:46;;;;;;;19.13;11.98;;;;;;;2.13;86.37;97651.75;5107671;28;20035;-72
2022/11/22 03:14:13;;;;;;;20.05;12.10;;;;;;;2.13;86.58;97649.13;5107601;28;20043;-72
2022/11/22 03:16:39;;;;;;;20.05;13.20;;;;;;;2.15;86.40;97649.06;5107265;28;20048;-72
2022/11/22 03:19:08;;;;;;;17.50;13.02;;;;;;;2.14;87.18;97650.81;5106317;28;20039;-71
2022/11/22 03:21:35;;;;;;;19.63;11.73;;;;;;;2.16;86.59;97648.13;5106318;28;20047;-72
2022/11/22 03:24:01;;;;;;;20.33;12.35;;;;;;;2.17;86.95;97636.75;5107398;28;20101;-72
2022/11/22 03:26:28;;;;;;;19.77;12.68;;;;;;;2.17;87.22;97627.16;5106943;28;20036;-71
2022/11/22 03:28:55;;;;;;;19.88;12.15;;;;;;;2.21;86.48;97617.38;5107551;28;20113;-71
2022/11/22 03:31:22;;;;;;;19.88;12.95;;;;;;;2.25;86.74;97624.16;5106232;28;20044;-72
2022/11/22 03:33:48;;;;;;;18.20;12.02;;;;;;;2.28;86.78;97633.63;5106393;28;20066;-71
2022/11/22 03:36:16;;;;;;;18.42;12.02;;;;;;;0.74;86.23;97395.59;5106851;28;20054;-71
2022/11/22 03:38:43;;;;;;;20.17;13.00;;;;;;;1.97;86.16;97592.44;5106006;28;20040;-71
2022/11/22 03:41:10;;;;;;;17.13;11.13;;;;;;;2.31;86.49;97642.16;5105852;28;20094;-71
2022/11/22 03:43:37;;;;;;;17.30;12.50;;;;;;;2.31;86.28;97639.53;5107243;28;20340;-71
2022/11/22 03:46:04;;;;;;;16.98;11.30;;;;;;;2.30;86.23;97624.78;5107136;28;20043;-71
2022/11/22 03:48:31;;;;;;;19.10;12.20;;;;;;;1.71;86.64;97544.94;5105824;28;20281;-71
2022/11/22 03:51:03;;;;;;;16.63;11.80;;;;;;;2.33;86.44;97621.16;5106353;28;20071;-71
2022/11/22 03:53:32;;;;;;;14.88;10.27;;;;;;;2.34;86.05;97607.16;5106538;28;20345;-71
2022/11/22 03:55:59;;;;;;;20.77;11.85;;;;;;;2.37;85.98;97609.63;5106402;28;20117;-71
2022/11/22 03:58:26;;;;;;;17.10;11.00;;;;;;;2.39;86.25;97623.47;5106461;28;20040;-71
2022/11/22 04:00:52;;;;;;;19.35;12.68;;;;;;;2.40;86.05;97606.88;5106716;28;20254;-72
2022/11/22 04:03:19;;;;;;;18.88;12.35;;;;;;;2.41;86.21;97601.56;5106902;28;20052;-72
2022/11/22 04:05:46;;;;;;;18.20;12.88;;;;;;;2.43;85.97;97601.47;5106899;28;20179;-72
2022/11/22 04:08:13;;;;;;;19.70;12.68;;;;;;;2.45;85.75;97607.47;5106811;28;20039;-72
2022/11/22 04:10:41;;;;;;;17.92;11.32;;;;;;;2.47;85.91;97605.63;5106789;28;20065;-72
2022/11/22 04:13:08;;;;;;;20.88;14.93;;;;;;;2.48;85.72;97602.94;5105377;28;20032;-72
2022/11/22 04:15:35;;;;;;;19.67;12.48;;;;;;;2.51;85.77;97612.41;5105353;28;20044;-72
2022/11/22 04:18:02;;;;;;;17.58;10.82;;;;;;;2.53;85.62;97607.94;5106706;28;20106;-72
2022/11/22 04:23:16;;;;;;;17.77;11.60;;;;;;;2.55;85.46;97606.09;5106196;28;20119;-72
2022/11/22 04:25:45;;;;;;;19.05;12.63;;;;;;;2.57;85.51;97609.47;5105969;28;20230;-71
2022/11/22 04:28:13;;;;;;;19.05;12.45;;;;;;;2.61;85.06;97604.94;5104994;28;20113;-71
2022/11/22 04:33:25;;;;;;;19.10;11.13;;;;;;;2.64;85.36;97602.16;5106040;28;20107;-72
2022/11/22 04:35:52;;;;;;;16.17;10.93;;;;;;;2.22;85.33;97527.59;5105913;28;20039;-71
2022/11/22 04:38:19;;;;;;;17.08;11.57;;;;;;;2.47;84.86;97553.34;5106162;28;20040;-72
2022/11/22 04:40:48;;;;;;;17.15;11.65;;;;;;;2.40;85.13;97537.13;5105817;28;20042;-72
2022/11/22 04:46:03;;;;;;;17.80;11.07;;;;;;;2.70;84.87;97584.38;5106325;28;20249;-72
2022/11/22 04:48:30;;;;;;;18.75;11.70;;;;;;;2.72;84.86;97589.53;5106321;28;20055;-72
2022/11/22 04:53:40;;;;;;;15.60;11.25;;;;;;;2.72;85.16;97581.69;5106003;28;20311;-72
2022/11/22 04:56:09;;;;;;;17.23;11.13;;;;;;;2.74;85.09;97590.31;5105450;28;20340;-72
2022/11/22 04:58:35;;;;;;;17.20;12.45;;;;;;;2.75;84.86;97592.84;5105882;28;20340;-71
2022/11/22 05:01:02;;;;;;;20.08;12.70;;;;;;;2.77;84.63;97591.00;5105550;28;20070;-72
2022/11/22 05:03:29;;;;;;;18.52;12.75;;;;;;;2.78;84.69;97581.38;5105874;28;20055;-72
2022/11/22 05:05:56;;;;;;;20.20;14.30;;;;;;;2.81;84.83;97579.44;5105517;28;20054;-71
2022/11/22 05:08:23;;;;;;;16.45;10.48;;;;;;;2.81;84.81;97584.69;5105799;28;20039;-72
2022/11/22 05:10:58;;;;;;;19.52;12.15;;;;;;;2.83;84.83;97592.44;5105914;28;20032;-72
2022/11/22 05:13:28;;;;;;;19.38;11.80;;;;;;;2.10;84.89;97461.13;5104679;28;20082;-72
2022/11/22 05:15:56;;;;;;;18.67;11.52;;;;;;;2.83;85.26;97580.22;5105743;28;20096;-72
2022/11/22 05:18:23;;;;;;;19.60;11.43;;;;;;;2.83;85.22;97567.13;5105748;28;20052;-70
2022/11/22 05:20:50;;;;;;;17.88;12.52;;;;;;;2.85;85.30;97567.06;5105468;28;20052;-71
2022/11/22 05:26:02;;;;;;;20.55;12.75;;;;;;;2.89;85.11;97563.34;5105686;28;20086;-72
2022/11/22 05:28:32;;;;;;;20.17;13.00;;;;;;;2.92;85.20;97572.81;5105651;28;20069;-71
2022/11/22 05:30:59;;;;;;;17.15;11.65;;;;;;;2.95;85.08;97567.41;5105238;28;20089;-72
2022/11/22 05:33:26;;;;;;;17.92;11.57;;;;;;;2.97;84.92;97571.63;5105305;28;20097;-72
2022/11/22 05:35:59;;;;;;;20.27;13.02;;;;;;;3.00;84.77;97581.09;5104457;28;20044;-72
2022/11/22 05:38:25;;;;;;;17.42;10.90;;;;;;;3.02;84.88;97581.88;5106891;28;20044;-72
2022/11/22 05:40:52;;;;;;;17.77;11.18;;;;;;;3.03;84.72;97578.31;5108269;28;20036;-72
2022/11/22 05:43:19;;;;;;;19.00;11.85;;;;;;;2.87;84.70;97559.97;5108246;28;20062;-71
2022/11/22 05:45:47;;;;;;;18.75;11.73;;;;;;;3.02;85.25;97592.34;5109367;28;20047;-72
2022/11/22 05:48:13;;;;;;;18.13;12.40;;;;;;;3.01;85.31;97599.34;5109366;28;20052;-72
2022/11/22 05:50:40;;;;;;;17.58;11.88;;;;;;;3.02;85.69;97597.56;5108197;28;20082;-72
2022/11/22 05:53:07;;;;;;;18.08;12.35;;;;;;;3.01;85.80;97604.56;5108121;28;20040;-72
2022/11/22 05:55:34;;;;;;;19.17;12.20;;;;;;;3.02;85.84;97590.56;5109144;28;20324;-72
2022/11/22 05:58:01;;;;;;;19.48;11.90;;;;;;;2.50;85.69;97504.34;5108814;28;20050;-72
2022/11/22 06:00:29;;;;;;;21.50;13.63;;;;;;;2.97;86.08;97581.25;5108452;28;20040;-72
2022/11/22 06:03:01;;;;;;;20.48;11.75;;;;;;;3.04;86.39;97591.31;5108918;28;20051;-72
2022/11/22 06:05:28;;;;;;;20.40;12.68;;;;;;;3.07;85.87;97588.53;5108800;28;20035;-72
2022/11/22 06:07:57;;;;;;;17.73;11.30;;;;;;;3.10;85.73;97590.16;5107858;28;20230;-72
2022/11/22 06:10:24;;;;;;;19.30;13.35;;;;;;;3.13;85.72;97593.44;5109161;28;20047;-72
2022/11/22 06:12:51;;;;;;;21.13;12.45;;;;;;;2.29;85.58;97462.78;5108638;28;20106;-72
2022/11/22 06:15:18;;;;;;;20.30;14.65;;;;;;;2.81;85.54;97529.75;5108605;28;20103;-72
2022/11/22 06:17:44;;;;;;;18.50;12.05;;;;;;;3.20;85.43;97605.28;5107460;28;20199;-72
2022/11/22 06:20:13;;;;;;;19.58;12.98;;;;;;;3.22;85.43;97599.97;5108563;28;20040;-72
2022/11/22 06:22:39;;;;;;;18.08;11.48;;;;;;;3.20;85.84;97602.66;5109017;28;20214;-72
2022/11/22 06:25:07;;;;;;;20.27;11.85;;;;;;;3.22;85.73;97605.22;5107519;28;20044;-72
2022/11/22 06:27:34;;;;;;;18.13;12.27;;;;;;;3.23;85.74;97601.66;5108119;28;20350;-72
2022/11/22 06:30:01;;;;;;;18.02;13.30;;;;;;;3.25;85.98;97612.06;5107339;28;20048;-72
2022/11/22 06:32:27;;;;;;;17.15;12.35;;;;;;;3.26;85.51;97609.34;5108201;28;20040;-72
2022/11/22 06:34:54;;;;;;;17.38;12.73;;;;;;;3.30;85.45;97608.25;5108745;28;20108;-72
2022/11/22 06:37:22;;;;;;;19.33;12.43;;;;;;;3.33;85.49;97612.50;5108653;28;20056;-72
2022/11/22 06:39:49;;;;;;;20.00;11.80;;;;;;;3.36;85.22;97620.19;5107154;28;20318;-72
2022/11/22 06:42:16;;;;;;;18.92;12.05;;;;;;;3.06;85.32;97567.69;5107815;28;20153;-72
2022/11/22 06:44:42;;;;;;;15.50;11.65;;;;;;;3.38;85.57;97618.31;5108456;28;20207;-72
2022/11/22 06:47:09;;;;;;;22.50;12.77;;;;;;;3.40;85.27;97621.72;5107795;28;20099;-72
2022/11/22 06:49:36;;;;;;;18.98;12.50;;;;;;;3.42;85.05;97612.00;5106512;28;20043;-72
2022/11/22 06:52:04;;;;;;;17.30;12.38;;;;;;;0.16;84.65;97070.88;5107867;28;20174;-73
2022/11/22 06:54:32;;;;;;;17.83;11.75;;;;;;;3.46;84.93;97610.91;5106798;28;20062;-72
2022/11/22 06:56:58;;;;;;;17.60;11.48;;;;;;;3.47;85.14;97615.22;5107627;28;20060;-73
2022/11/22 06:59:25;;;;;;;21.15;12.70;;;;;;;3.48;85.20;97609.88;5108223;28;20058;-72
2022/11/22 07:01:52;;;;;;;19.17;12.35;;;;;;;3.51;85.20;97614.13;5107831;28;20208;-72
2022/11/22 07:04:19;;;;;;;18.02;11.75;;;;;;;3.52;85.16;97615.81;5107689;28;20086;-72
2022/11/22 07:06:47;;;;;;;15.60;11.77;;;;;;;3.52;85.11;97614.03;5107499;28;20068;-73
2022/11/22 07:09:14;;;;;;;20.08;12.70;;;;;;;3.37;84.83;97593.06;5108110;28;20048;-73
2022/11/22 07:11:42;;;;;;;18.70;12.30;;;;;;;3.57;84.85;97613.78;5107765;28;20051;-73
2022/11/22 07:14:09;;;;;;;17.67;12.30;;;;;;;3.40;84.71;97591.13;5107783;28;20058;-73
2022/11/22 07:16:37;;;;;;;17.35;11.30;;;;;;;3.61;84.89;97622.31;5107330;28;20318;-73
2022/11/22 07:19:04;;;;;;;16.40;11.38;;;;;;;3.60;84.94;97631.94;5107318;28;20036;-72
2022/11/22 07:21:31;;;;;;;14.20;10.82;;;;;;;3.62;84.96;97634.50;5107109;28;20046;-72
2022/11/22 07:23:58;;;;;;;17.70;13.05;;;;;;;3.52;85.19;97624.50;5107125;28;20040;-73
2022/11/22 07:26:26;;;;;;;18.90;12.40;;;;;;;3.59;85.24;97634.66;5107024;28;20035;-72
2022/11/22 07:28:54;;;;;;;16.65;11.82;;;;;;;3.61;85.20;97625.78;5106179;28;20331;-73
2022/11/22 07:31:21;;;;;;;17.15;11.77;;;;;;;3.62;85.09;97626.63;5106384;28;20036;-72
2022/11/22 07:33:48;;;;;;;17.75;12.23;;;;;;;3.63;85.34;97633.56;5106037;28;20230;-73
2022/11/22 07:36:17;;;;;;;19.25;12.88;;;;;;;3.61;85.30;97636.25;5107366;28;20063;-73
2022/11/22 07:38:45;;;;;;;18.98;12.25;;;;;;;3.62;85.16;97637.09;5106780;28;20044;-72
2022/11/22 07:41:12;;;;;;;19.42;11.80;;;;;;;3.62;85.43;97650.22;5106746;28;20043;-74
2022/11/22 07:43:38;;;;;;;19.42;12.32;;;;;;;3.61;85.45;97641.50;5106291;28;20063;-72
2022/11/22 07:46:11;;;;;;;18.33;13.02;;;;;;;3.63;85.44;97639.66;5107152;28;20051;-72
2022/11/22 07:48:38;;;;;;;18.08;12.95;;;;;;;3.63;85.63;97641.41;5106792;28;20044;-73
2022/11/22 07:51:05;;;;;;;21.25;13.68;;;;;;;3.65;85.49;97655.28;5106899;28;20330;-73
2022/11/22 07:53:32;;;;;;;17.17;12.45;;;;;;;3.61;85.51;97649.34;5106682;28;20052;-72
2022/11/22 07:56:02;;;;;;;17.90;12.23;;;;;;;3.63;85.62;97657.13;5105927;28;20062;-73
2022/11/22 07:58:28;;;;;;;17.80;12.63;;;;;;;3.64;85.49;97651.81;5105919;28;20036;-73
2022/11/22 08:00:55;;;;;;;18.45;12.52;;;;;;;3.65;85.51;97663.13;5105744;28;20226;-73
2022/11/22 08:03:23;;;;;;;18.00;12.70;;;;;;;3.61;85.66;97661.63;5105525;28;20048;-73
2022/11/22 08:05:50;;;;;;;19.33;13.85;;;;;;;3.59;85.68;97664.31;5106266;28;20048;-73
2022/11/22 08:08:17;;;;;;;18.55;13.10;;;;;;;3.57;85.65;97670.56;5106486;28;20051;-73
2022/11/22 08:10:44;;;;;;;17.27;12.55;;;;;;;3.52;85.70;97669.03;5106837;28;20051;-73
2022/11/22 08:13:11;;;;;;;17.70;11.65;;;;;;;3.51;85.90;97669.97;5105455;28;20242;-73
2022/11/22 08:15:38;;;;;;;18.83;12.75;;;;;;;3.49;85.88;97673.59;5106733;28;20054;-73
2022/11/22 08:18:04;;;;;;;18.75;13.32;;;;;;;3.48;85.82;97671.91;5106125;28;20097;-73
2022/11/22 08:20:33;;;;;;;15.63;11.27;;;;;;;3.47;85.95;97676.28;5106175;28;20036;-73
2022/11/22 08:22:59;;;;;;;18.33;12.63;;;;;;;3.38;85.92;97684.63;5105317;28;20333;-73
2022/11/22 08:25:26;;;;;;;17.23;12.23;;;;;;;3.42;86.02;97695.78;5106577;28;20101;-73
2022/11/22 08:27:53;;;;;;;18.95;12.68;;;;;;;3.43;85.82;97693.09;5105246;28;20036;-73
2022/11/22 08:30:20;;;;;;;21.85;13.13;;;;;;;3.40;85.94;97711.59;5105197;28;20039;-73
2022/11/22 08:32:46;;;;;;;19.33;13.52;;;;;;;3.35;85.99;97703.13;5105912;28;20234;-73
2022/11/22 08:35:13;;;;;;;18.13;13.30;;;;;;;3.35;85.81;97705.75;5106302;28;20040;-73
2022/11/22 08:37:41;;;;;;;19.30;14.38;;;;;;;3.32;85.73;97711.16;5105627;28;20040;-73
2022/11/22 08:40:09;;;;;;;20.77;13.70;;;;;;;3.32;85.81;97721.63;5105898;28;20292;-73
2022/11/22 08:42:36;;;;;;;20.80;13.32;;;;;;;3.29;85.67;97713.06;5105666;28;20047;-73
2022/11/22 08:45:03;;;;;;;16.90;11.93;;;;;;;3.30;85.64;97717.38;5105685;28;20043;-73
2022/11/22 08:47:30;;;;;;;18.40;13.27;;;;;;;3.09;85.61;97688.78;5105105;28;20242;-73
2022/11/22 08:49:57;;;;;;;19.33;12.75;;;;;;;3.25;85.59;97725.47;5104433;28;20048;-73
2022/11/22 08:52:23;;;;;;;19.10;12.70;;;;;;;3.27;85.68;97720.16;5105373;28;20038;-72
2022/11/22 08:54:52;;;;;;;19.55;14.48;;;;;;;3.25;85.71;97728.09;5104666;28;20044;-73
2022/11/22 08:57:18;;;;;;;17.30;12.80;;;;;;;3.24;85.80;97728.19;5105167;28;20063;-73
2022/11/22 08:59:45;;;;;;;19.77;13.85;;;;;;;3.25;85.46;97738.56;5105485;28;20070;-73
2022/11/22 09:02:12;;;;;;;20.60;14.65;;;;;;;-0.01;85.08;97215.88;5105537;28;20093;-73
2022/11/22 09:04:38;;;;;;;19.55;13.00;;;;;;;3.19;85.44;97755.44;5104522;28;20036;-73
2022/11/22 09:07:05;;;;;;;18.83;14.18;;;;;;;3.19;85.59;97744.97;5104486;28;20239;-73
2022/11/22 09:09:32;;;;;;;19.85;13.60;;;;;;;3.21;85.44;97752.75;5104392;28;20047;-73
2022/11/22 09:12:00;;;;;;;21.15;14.38;;;;;;;3.22;85.49;97746.59;5105990;28;20044;-73
2022/11/22 09:14:27;;;;;;;18.38;13.45;;;;;;;3.24;85.36;97746.50;5110001;28;20189;-73
2022/11/22 09:16:54;;;;;;;19.48;14.00;;;;;;;3.23;85.39;97743.03;5110116;28;20052;-73
2022/11/22 09:19:21;;;;;;;21.85;15.30;;;;;;;3.23;85.46;97748.28;5108601;28;20308;-73
2022/11/22 09:21:47;;;;;;;20.05;15.07;;;;;;;3.24;85.35;97749.13;5110014;28;20044;-73
2022/11/22 09:24:14;;;;;;;21.48;15.43;;;;;;;3.23;85.53;97747.44;5108610;28;20051;-73
2022/11/22 09:26:41;;;;;;;19.55;15.05;;;;;;;3.23;85.42;97750.91;5109783;28;20094;-73
2022/11/22 09:29:09;;;;;;;20.55;14.25;;;;;;;3.24;85.50;97756.97;5109396;28;20089;-73
2022/11/22 09:31:36;;;;;;;18.48;13.68;;;;;;;3.23;85.26;97753.50;5109712;28;20077;-73
2022/11/22 09:34:03;;;;;;;20.38;14.30;;;;;;;3.25;85.36;97756.91;5091755;28;20319;-73
2022/11/22 09:36:29;;;;;;;20.95;14.65;;;;;;;3.27;85.24;97755.06;5109012;28;20039;-72
2022/11/22 09:38:56;;;;;;;20.30;15.65;;;;;;;3.27;85.27;97752.44;5109266;28;20056;-72
2022/11/22 09:41:51;;;;;;;23.60;15.77;;;;;;;3.30;85.44;97751.44;5109562;28;20044;-73
2022/11/22 09:44:26;;;;;;;20.48;14.23;;;;;;;3.28;85.52;97745.41;5107954;28;20334;-73
2022/11/22 09:46:54;;;;;;;;;;;;;;;3.25;86.18;97750.81;5108759;28;20044;-72
2022/11/22 09:49:27;;;;;;;21.17;15.50;;;;;;;3.04;85.62;97703.03;5109295;28;19915;-72
2022/11/22 09:52:01;;;;;;;22.42;15.98;;;;;;;3.30;85.37;97749.66;5108282;28;20044;-72
2022/11/22 09:54:34;;;;;;;23.35;16.45;;;;;;;3.30;85.23;97744.41;5108227;28;20051;-72
2022/11/22 09:57:04;;;;;;;24.15;16.75;;;;;;;3.31;85.12;97742.66;5107875;28;20052;-72
2022/11/22 09:59:37;;;;;;;23.13;16.45;;;;;;;2.93;85.11;97679.16;5108854;28;20062;-72
2022/11/22 10:02:07;;;;;;;21.08;15.48;;;;;;;3.31;85.05;97735.63;5108778;28;20070;-72
2022/11/22 10:04:38;;;;;;;25.48;17.33;;;;;;;3.32;85.00;97736.47;5107933;28;20058;-72
2022/11/22 10:07:12;;;;;;;26.10;16.13;;;;;;;2.94;85.03;97684.31;5108340;28;20043;-72
2022/11/22 10:09:44;;;;;;;21.13;15.48;;;;;;;3.35;85.09;97726.69;5108902;28;20119;-72
2022/11/22 10:12:16;;;;;;;21.48;14.93;;;;;;;3.37;84.94;97732.69;5107768;28;20044;-72
2022/11/22 10:14:51;;;;;;;22.90;15.52;;;;;;;3.39;84.80;97725.59;5109498;28;20044;-72
2022/11/22 10:17:29;;;;;;;22.08;16.05;;;;;;;3.39;84.78;97730.84;5109447;28;20101;-72
2022/11/22 10:20:05;;;;;;;25.42;16.60;;;;;;;3.40;84.88;97756.13;5108233;28;20364;-71
2022/11/22 10:22:33;;;;;;;20.17;15.98;;;;;;;3.43;84.64;97740.25;5108631;28;20299;-71
2022/11/22 10:25:03;;;;;;;21.50;16.45;;;;;;;3.44;84.73;97730.59;5107371;28;20055;-72
2022/11/22 10:27:32;;;;;;;22.50;16.52;;;;;;;2.88;84.57;97648.00;5108613;28;20065;-71
2022/11/22 10:30:04;;;;;;;21.50;15.88;;;;;;;3.47;84.65;97735.69;5108122;28;20040;-71
2022/11/22 10:32:38;;;;;;;22.95;16.27;;;;;;;3.50;84.62;97725.91;5108984;28;20051;-72
2022/11/22 10:35:22;;;;;;;23.33;17.52;;;;;;;3.52;84.50;97738.91;5108243;28;20315;-71
2022/11/22 10:37:58;;;;;;;20.55;15.82;;;;;;;3.49;84.49;97732.06;5108601;28;20047;-71
2022/11/22 10:40:33;;;;;;;20.85;15.52;;;;;;;3.50;84.44;97733.75;5109003;28;20058;-71
2022/11/22 10:43:17;;;;;;;22.77;14.65;;;;;;;3.52;84.49;97747.63;5108144;28;20070;-72
2022/11/22 10:45:49;;;;;;;23.42;16.52;;;;;;;3.52;84.55;97738.91;5108378;28;20044;-72
2022/11/22 10:48:26;;;;;;;19.88;15.40;;;;;;;3.52;84.44;97737.13;5108423;28;20101;-72
2022/11/22 10:51:02;;;;;;;21.88;16.25;;;;;;;3.52;84.57;97734.53;5107868;28;20245;-72
2022/11/22 10:53:44;;;;;;;22.17;15.82;;;;;;;3.56;84.47;97744.84;5107774;28;20048;-72
2022/11/22 10:56:18;;;;;;;21.38;16.10;;;;;;;3.56;84.32;97744.84;5106823;28;20056;-72
2022/11/22 10:58:58;;;;;;;20.50;15.82;;;;;;;3.58;84.05;97729.88;5107790;28;20291;-72
2022/11/22 11:01:34;;;;;;;18.48;14.20;;;;;;;3.61;84.28;97727.09;5107596;28;20081;-72
2022/11/22 11:04:03;;;;;;;20.70;15.35;;;;;;;3.63;84.14;97723.47;5108328;28;20188;-72
2022/11/22 11:06:35;;;;;;;19.88;15.43;;;;;;;3.46;84.14;97685.09;5107720;28;20044;-72
2022/11/22 11:09:06;;;;;;;24.50;16.20;;;;;;;3.45;84.07;97687.78;5107589;28;20188;-72
2022/11/22 11:11:35;;;;;;;21.02;15.60;;;;;;;3.69;84.05;97723.16;5107482;28;20040;-72
2022/11/22 11:14:07;;;;;;;19.98;15.43;;;;;;;3.70;84.03;97734.47;5107942;28;20052;-72
2022/11/22 11:16:38;;;;;;;20.10;15.63;;;;;;;3.71;84.00;97731.78;5107259;28;20265;-72
2022/11/22 11:19:16;;;;;;;19.30;14.93;;;;;;;3.05;83.79;97618.34;5106336;28;20063;-72
2022/11/22 11:21:42;;;;;;;18.83;15.18;;;;;;;3.77;83.93;97736.69;5107000;28;20173;-72
2022/11/22 11:24:13;;;;;;;23.08;16.38;;;;;;;3.77;83.95;97723.59;5107388;28;20055;-72
2022/11/22 11:26:42;;;;;;;20.17;15.52;;;;;;;3.56;83.66;97688.06;5107308;28;20173;-72
2022/11/22 11:29:33;;;;;;;20.30;16.38;;;;;;;3.76;83.82;97721.91;5106080;28;20044;-72
2022/11/22 11:32:16;;;;;;;21.65;17.13;;;;;;;3.75;83.79;97711.50;5107514;28;20036;-72
2022/11/22 11:34:50;;;;;;;22.10;16.77;;;;;;;3.76;83.75;97715.81;5107356;28;20051;-72
2022/11/22 11:37:23;;;;;;;22.08;16.55;;;;;;;3.77;83.66;97714.88;5105748;28;20089;-72
2022/11/22 11:39:50;;;;;;;22.35;16.60;;;;;;;3.80;83.56;97704.22;5106577;28;20044;-72
2022/11/22 11:42:28;;;;;;;22.45;17.13;;;;;;;3.80;83.65;97715.56;5106692;28;20044;-72
2022/11/22 11:45:15;;;;;;;20.65;15.60;;;;;;;3.24;83.30;97640.00;5106994;28;20288;-72
2022/11/22 11:47:43;;;;;;;18.55;15.30;;;;;;;3.84;83.56;97719.72;5106308;28;20043;-72